sensor_id;sensor_type;location;lat;lon;timestamp;temperature;humidity
23783;DHT22;12071;50.850;4.446;2023-03-23T00:02:27;13.70;99.90
23783;DHT22;12071;50.850;4.446;2023-03-23T00:04:53;13.60;1.00
23783;DHT22;12071;50.850;4.446;2023-03-23T00:07:20;13.70;1.00
23783;DHT22;12071;50.850;4.446;2023-03-23T00:09:49;13.70;1.00
23783;DHT22;12071;50.850;4.446;2023-03-23T00:12:30;13.70;1.00
23783;DHT22;12071;50.850;4.446;2023-03-23T00:15:07;13.70;1.00
23783;DHT22;12071;50.850;4.446;2023-03-23T00:17:34;13.70;1.00
23783;DHT22;12071;50.850;4.446;2023-03-23T00:20:00;13.60;1.00
23783;DHT22;12071;50.850;4.446;2023-03-23T00:22:27;13.60;1.00
23783;DHT22;12071;50.850;4.446;2023-03-23T00:24:53;13.60;1.00
23783;DHT22;12071;50.850;4.446;2023-03-23T00:27:20;13.60;1.00
23783;DHT22;12071;50.850;4.446;2023-03-23T00:29:50;13.70;1.00
23783;DHT22;12071;50.850;4.446;2023-03-23T00:32:23;13.80;1.00
23783;DHT22;12071;50.850;4.446;2023-03-23T00:34:56;13.60;1.00
23783;DHT22;12071;50.850;4.446;2023-03-23T00:37:24;13.50;1.00
23783;DHT22;12071;50.850;4.446;2023-03-23T00:39:50;13.60;1.00
23783;DHT22;12071;50.850;4.446;2023-03-23T00:42:17;13.60;1.00
23783;DHT22;12071;50.850;4.446;2023-03-23T00:44:43;13.60;1.00
23783;DHT22;12071;50.850;4.446;2023-03-23T00:47:12;13.60;1.00
23783;DHT22;12071;50.850;4.446;2023-03-23T00:49:38;13.60;1.00
23783;DHT22;12071;50.850;4.446;2023-03-23T00:52:05;13.60;1.00
23783;DHT22;12071;50.850;4.446;2023-03-23T00:54:31;13.50;1.00
23783;DHT22;12071;50.850;4.446;2023-03-23T00:56:58;13.60;1.00
23783;DHT22;12071;50.850;4.446;2023-03-23T00:59:24;13.60;1.00
23783;DHT22;12071;50.850;4.446;2023-03-23T01:01:49;13.70;1.00
23783;DHT22;12071;50.850;4.446;2023-03-23T01:04:15;13.60;1.00
23783;DHT22;12071;50.850;4.446;2023-03-23T01:06:43;13.60;1.00
23783;DHT22;12071;50.850;4.446;2023-03-23T01:09:12;13.50;1.00
23783;DHT22;12071;50.850;4.446;2023-03-23T01:11:42;13.50;1.00
23783;DHT22;12071;50.850;4.446;2023-03-23T01:14:09;13.60;1.00
23783;DHT22;12071;50.850;4.446;2023-03-23T01:16:34;13.50;1.00
23783;DHT22;12071;50.850;4.446;2023-03-23T01:19:00;13.50;1.00
23783;DHT22;12071;50.850;4.446;2023-03-23T01:21:26;13.50;1.00
23783;DHT22;12071;50.850;4.446;2023-03-23T01:23:51;13.50;1.00
23783;DHT22;12071;50.850;4.446;2023-03-23T01:26:20;13.60;1.00
23783;DHT22;12071;50.850;4.446;2023-03-23T01:28:47;13.70;1.00
23783;DHT22;12071;50.850;4.446;2023-03-23T01:31:14;13.60;1.00
23783;DHT22;12071;50.850;4.446;2023-03-23T01:33:41;13.60;1.00
23783;DHT22;12071;50.850;4.446;2023-03-23T01:36:11;13.50;1.00
23783;DHT22;12071;50.850;4.446;2023-03-23T01:38:37;13.50;1.00
23783;DHT22;12071;50.850;4.446;2023-03-23T01:41:03;13.60;1.00
23783;DHT22;12071;50.850;4.446;2023-03-23T01:43:29;13.60;1.00
23783;DHT22;12071;50.850;4.446;2023-03-23T01:45:55;13.50;1.00
23783;DHT22;12071;50.850;4.446;2023-03-23T01:48:25;13.60;1.00
23783;DHT22;12071;50.850;4.446;2023-03-23T01:53:22;13.50;1.00
23783;DHT22;12071;50.850;4.446;2023-03-23T01:55:49;13.60;1.00
23783;DHT22;12071;50.850;4.446;2023-03-23T01:58:25;13.60;99.90
23783;DHT22;12071;50.850;4.446;2023-03-23T02:00:54;13.60;99.90
23783;DHT22;12071;50.850;4.446;2023-03-23T02:03:21;13.60;99.90
23783;DHT22;12071;50.850;4.446;2023-03-23T02:05:49;13.60;1.00
23783;DHT22;12071;50.850;4.446;2023-03-23T02:08:16;13.60;1.00
23783;DHT22;12071;50.850;4.446;2023-03-23T02:10:43;13.60;99.90
23783;DHT22;12071;50.850;4.446;2023-03-23T02:13:11;13.60;99.90
23783;DHT22;12071;50.850;4.446;2023-03-23T02:18:08;13.50;99.90
23783;DHT22;12071;50.850;4.446;2023-03-23T02:20:56;13.50;99.90
23783;DHT22;12071;50.850;4.446;2023-03-23T02:31:47;13.40;99.90
23783;DHT22;12071;50.850;4.446;2023-03-23T02:37:07;13.40;99.90
23783;DHT22;12071;50.850;4.446;2023-03-23T02:39:43;13.40;99.90
23783;DHT22;12071;50.850;4.446;2023-03-23T02:42:13;13.40;99.90
23783;DHT22;12071;50.850;4.446;2023-03-23T02:44:43;13.40;99.90
23783;DHT22;12071;50.850;4.446;2023-03-23T02:47:16;13.40;99.90
23783;DHT22;12071;50.850;4.446;2023-03-23T02:49:44;13.40;99.90
23783;DHT22;12071;50.850;4.446;2023-03-23T02:52:14;13.40;99.90
23783;DHT22;12071;50.850;4.446;2023-03-23T02:54:43;13.40;99.90
23783;DHT22;12071;50.850;4.446;2023-03-23T02:57:09;13.50;88.20
23783;DHT22;12071;50.850;4.446;2023-03-23T02:59:35;13.40;96.80
23783;DHT22;12071;50.850;4.446;2023-03-23T03:02:14;13.50;88.60
23783;DHT22;12071;50.850;4.446;2023-03-23T03:04:50;13.40;67.80
23783;DHT22;12071;50.850;4.446;2023-03-23T03:07:38;13.60;52.50
23783;DHT22;12071;50.850;4.446;2023-03-23T03:10:23;13.50;6.50
23783;DHT22;12071;50.850;4.446;2023-03-23T03:13:07;13.40;29.60
23783;DHT22;12071;50.850;4.446;2023-03-23T03:15:44;13.30;26.60
23783;DHT22;12071;50.850;4.446;2023-03-23T03:18:41;13.30;35.60
23783;DHT22;12071;50.850;4.446;2023-03-23T03:21:09;13.40;1.00
23783;DHT22;12071;50.850;4.446;2023-03-23T03:23:40;13.40;1.00
23783;DHT22;12071;50.850;4.446;2023-03-23T03:26:11;13.40;1.00
23783;DHT22;12071;50.850;4.446;2023-03-23T03:28:37;13.40;1.00
23783;DHT22;12071;50.850;4.446;2023-03-23T03:31:04;13.40;1.00
23783;DHT22;12071;50.850;4.446;2023-03-23T03:33:31;13.50;99.90
23783;DHT22;12071;50.850;4.446;2023-03-23T03:36:01;13.50;99.90
23783;DHT22;12071;50.850;4.446;2023-03-23T03:38:28;13.40;99.90
23783;DHT22;12071;50.850;4.446;2023-03-23T03:40:56;13.40;99.90
23783;DHT22;12071;50.850;4.446;2023-03-23T03:43:22;13.50;99.90
23783;DHT22;12071;50.850;4.446;2023-03-23T03:45:47;13.50;99.90
23783;DHT22;12071;50.850;4.446;2023-03-23T03:48:13;13.50;99.90
23783;DHT22;12071;50.850;4.446;2023-03-23T03:50:39;13.50;99.90
23783;DHT22;12071;50.850;4.446;2023-03-23T03:53:05;13.40;99.90
23783;DHT22;12071;50.850;4.446;2023-03-23T03:55:32;13.50;99.90
23783;DHT22;12071;50.850;4.446;2023-03-23T03:58:04;13.50;99.90
23783;DHT22;12071;50.850;4.446;2023-03-23T04:00:30;13.50;99.90
23783;DHT22;12071;50.850;4.446;2023-03-23T04:02:55;13.50;99.90
23783;DHT22;12071;50.850;4.446;2023-03-23T04:05:22;13.60;99.90
23783;DHT22;12071;50.850;4.446;2023-03-23T04:07:49;13.50;99.90
23783;DHT22;12071;50.850;4.446;2023-03-23T04:10:18;13.40;99.90
23783;DHT22;12071;50.850;4.446;2023-03-23T04:12:47;13.50;99.90
23783;DHT22;12071;50.850;4.446;2023-03-23T04:15:13;13.40;99.90
23783;DHT22;12071;50.850;4.446;2023-03-23T04:17:39;13.40;99.90
23783;DHT22;12071;50.850;4.446;2023-03-23T04:20:07;13.50;99.90
23783;DHT22;12071;50.850;4.446;2023-03-23T04:22:41;13.50;99.90
23783;DHT22;12071;50.850;4.446;2023-03-23T04:25:09;13.30;99.90
23783;DHT22;12071;50.850;4.446;2023-03-23T04:27:38;13.30;99.90
23783;DHT22;12071;50.850;4.446;2023-03-23T04:30:05;13.30;99.90
23783;DHT22;12071;50.850;4.446;2023-03-23T04:32:31;13.30;99.90
23783;DHT22;12071;50.850;4.446;2023-03-23T04:34:58;13.20;99.90
23783;DHT22;12071;50.850;4.446;2023-03-23T04:37:27;13.20;99.90
23783;DHT22;12071;50.850;4.446;2023-03-23T04:39:55;13.30;99.90
23783;DHT22;12071;50.850;4.446;2023-03-23T04:42:29;13.30;99.90
23783;DHT22;12071;50.850;4.446;2023-03-23T04:44:56;13.30;99.90
23783;DHT22;12071;50.850;4.446;2023-03-23T04:47:23;13.30;99.90
23783;DHT22;12071;50.850;4.446;2023-03-23T04:49:49;13.30;99.90
23783;DHT22;12071;50.850;4.446;2023-03-23T04:52:16;13.40;99.90
23783;DHT22;12071;50.850;4.446;2023-03-23T04:54:41;13.30;99.90
23783;DHT22;12071;50.850;4.446;2023-03-23T04:57:08;13.20;99.90
23783;DHT22;12071;50.850;4.446;2023-03-23T04:59:34;13.20;99.90
23783;DHT22;12071;50.850;4.446;2023-03-23T05:01:59;13.20;99.90
23783;DHT22;12071;50.850;4.446;2023-03-23T05:04:25;13.20;99.90
23783;DHT22;12071;50.850;4.446;2023-03-23T05:06:54;13.20;99.90
23783;DHT22;12071;50.850;4.446;2023-03-23T05:09:19;13.10;99.90
23783;DHT22;12071;50.850;4.446;2023-03-23T05:11:45;13.10;99.90
23783;DHT22;12071;50.850;4.446;2023-03-23T05:14:11;13.10;99.90
23783;DHT22;12071;50.850;4.446;2023-03-23T05:16:37;13.10;99.90
23783;DHT22;12071;50.850;4.446;2023-03-23T05:19:03;13.20;99.90
23783;DHT22;12071;50.850;4.446;2023-03-23T05:21:30;13.00;99.90
23783;DHT22;12071;50.850;4.446;2023-03-23T05:23:56;13.10;99.90
23783;DHT22;12071;50.850;4.446;2023-03-23T05:26:22;13.20;99.90
23783;DHT22;12071;50.850;4.446;2023-03-23T05:28:49;13.30;99.90
23783;DHT22;12071;50.850;4.446;2023-03-23T05:31:18;13.30;99.90
23783;DHT22;12071;50.850;4.446;2023-03-23T05:33:44;13.40;99.90
23783;DHT22;12071;50.850;4.446;2023-03-23T05:36:11;13.30;99.90
23783;DHT22;12071;50.850;4.446;2023-03-23T05:38:39;13.30;99.90
23783;DHT22;12071;50.850;4.446;2023-03-23T05:41:07;13.30;99.90
23783;DHT22;12071;50.850;4.446;2023-03-23T05:43:33;13.20;99.90
23783;DHT22;12071;50.850;4.446;2023-03-23T05:45:59;13.20;99.90
23783;DHT22;12071;50.850;4.446;2023-03-23T05:48:25;13.10;99.90
23783;DHT22;12071;50.850;4.446;2023-03-23T05:50:51;13.10;99.90
23783;DHT22;12071;50.850;4.446;2023-03-23T05:53:17;13.10;99.90
23783;DHT22;12071;50.850;4.446;2023-03-23T05:55:42;13.00;99.90
23783;DHT22;12071;50.850;4.446;2023-03-23T05:58:08;13.00;99.90
23783;DHT22;12071;50.850;4.446;2023-03-23T06:00:34;13.10;99.90
23783;DHT22;12071;50.850;4.446;2023-03-23T06:03:00;13.10;99.90
23783;DHT22;12071;50.850;4.446;2023-03-23T06:05:26;13.00;99.90
23783;DHT22;12071;50.850;4.446;2023-03-23T06:07:52;13.10;99.90
23783;DHT22;12071;50.850;4.446;2023-03-23T06:10:19;13.10;99.90
23783;DHT22;12071;50.850;4.446;2023-03-23T06:12:45;13.10;99.90
23783;DHT22;12071;50.850;4.446;2023-03-23T06:15:11;13.20;99.90
23783;DHT22;12071;50.850;4.446;2023-03-23T06:17:38;13.20;99.90
23783;DHT22;12071;50.850;4.446;2023-03-23T06:20:07;13.10;99.90
23783;DHT22;12071;50.850;4.446;2023-03-23T06:22:34;13.00;99.90
23783;DHT22;12071;50.850;4.446;2023-03-23T06:25:01;13.10;99.90
23783;DHT22;12071;50.850;4.446;2023-03-23T06:27:26;13.10;99.90
23783;DHT22;12071;50.850;4.446;2023-03-23T06:29:52;13.10;99.90
23783;DHT22;12071;50.850;4.446;2023-03-23T06:32:18;13.10;99.90
23783;DHT22;12071;50.850;4.446;2023-03-23T06:34:44;13.10;99.90
23783;DHT22;12071;50.850;4.446;2023-03-23T06:37:11;13.20;99.90
23783;DHT22;12071;50.850;4.446;2023-03-23T06:39:37;13.10;99.90
23783;DHT22;12071;50.850;4.446;2023-03-23T06:42:04;13.10;99.90
23783;DHT22;12071;50.850;4.446;2023-03-23T06:44:30;13.10;99.90
23783;DHT22;12071;50.850;4.446;2023-03-23T06:46:56;13.10;99.90
23783;DHT22;12071;50.850;4.446;2023-03-23T06:49:21;13.10;99.90
23783;DHT22;12071;50.850;4.446;2023-03-23T06:51:48;13.10;99.90
23783;DHT22;12071;50.850;4.446;2023-03-23T06:54:13;13.00;99.90
23783;DHT22;12071;50.850;4.446;2023-03-23T06:56:39;13.00;1.00
23783;DHT22;12071;50.850;4.446;2023-03-23T06:59:05;13.00;41.80
23783;DHT22;12071;50.850;4.446;2023-03-23T07:01:31;12.90;47.10
23783;DHT22;12071;50.850;4.446;2023-03-23T07:03:56;12.80;99.90
23783;DHT22;12071;50.850;4.446;2023-03-23T07:06:23;12.80;99.90
23783;DHT22;12071;50.850;4.446;2023-03-23T07:08:50;12.90;1.00
23783;DHT22;12071;50.850;4.446;2023-03-23T07:11:15;12.90;1.00
23783;DHT22;12071;50.850;4.446;2023-03-23T07:13:41;12.80;1.00
23783;DHT22;12071;50.850;4.446;2023-03-23T07:16:07;12.60;1.00
23783;DHT22;12071;50.850;4.446;2023-03-23T07:18:33;12.80;1.00
23783;DHT22;12071;50.850;4.446;2023-03-23T07:20:59;12.50;18.00
23783;DHT22;12071;50.850;4.446;2023-03-23T07:23:25;12.00;99.90
23783;DHT22;12071;50.850;4.446;2023-03-23T07:25:51;11.60;99.90
23783;DHT22;12071;50.850;4.446;2023-03-23T07:28:17;11.40;99.90
23783;DHT22;12071;50.850;4.446;2023-03-23T07:30:44;11.00;99.90
23783;DHT22;12071;50.850;4.446;2023-03-23T07:33:10;10.90;99.90
23783;DHT22;12071;50.850;4.446;2023-03-23T07:35:37;10.90;99.90
23783;DHT22;12071;50.850;4.446;2023-03-23T07:38:04;10.80;99.90
23783;DHT22;12071;50.850;4.446;2023-03-23T07:40:31;10.80;99.90
23783;DHT22;12071;50.850;4.446;2023-03-23T07:43:01;10.90;99.90
23783;DHT22;12071;50.850;4.446;2023-03-23T07:45:28;11.00;99.90
23783;DHT22;12071;50.850;4.446;2023-03-23T07:47:53;11.20;99.90
23783;DHT22;12071;50.850;4.446;2023-03-23T07:50:19;11.30;99.90
23783;DHT22;12071;50.850;4.446;2023-03-23T07:52:47;11.40;99.90
23783;DHT22;12071;50.850;4.446;2023-03-23T07:55:13;11.50;99.90
23783;DHT22;12071;50.850;4.446;2023-03-23T07:57:46;11.50;99.90
23783;DHT22;12071;50.850;4.446;2023-03-23T08:00:14;11.70;99.90
23783;DHT22;12071;50.850;4.446;2023-03-23T08:02:48;11.80;99.90
23783;DHT22;12071;50.850;4.446;2023-03-23T08:05:16;11.70;99.90
23783;DHT22;12071;50.850;4.446;2023-03-23T08:07:42;11.80;99.90
23783;DHT22;12071;50.850;4.446;2023-03-23T08:10:08;11.80;99.90
23783;DHT22;12071;50.850;4.446;2023-03-23T08:12:38;11.80;99.90
23783;DHT22;12071;50.850;4.446;2023-03-23T08:15:06;11.80;99.90
23783;DHT22;12071;50.850;4.446;2023-03-23T08:17:32;11.70;99.90
23783;DHT22;12071;50.850;4.446;2023-03-23T08:19:58;11.60;99.90
23783;DHT22;12071;50.850;4.446;2023-03-23T08:22:24;11.50;99.90
23783;DHT22;12071;50.850;4.446;2023-03-23T08:24:50;11.40;99.90
23783;DHT22;12071;50.850;4.446;2023-03-23T08:27:16;11.50;99.90
23783;DHT22;12071;50.850;4.446;2023-03-23T08:29:44;11.40;99.90
23783;DHT22;12071;50.850;4.446;2023-03-23T08:32:10;11.40;99.90
23783;DHT22;12071;50.850;4.446;2023-03-23T08:34:36;11.30;99.90
23783;DHT22;12071;50.850;4.446;2023-03-23T08:37:01;11.20;99.90
23783;DHT22;12071;50.850;4.446;2023-03-23T08:39:28;11.10;99.90
23783;DHT22;12071;50.850;4.446;2023-03-23T08:41:55;11.20;99.90
23783;DHT22;12071;50.850;4.446;2023-03-23T08:44:21;11.30;99.90
23783;DHT22;12071;50.850;4.446;2023-03-23T08:46:46;11.30;99.90
23783;DHT22;12071;50.850;4.446;2023-03-23T08:49:12;11.30;99.90
23783;DHT22;12071;50.850;4.446;2023-03-23T08:51:37;11.40;99.90
23783;DHT22;12071;50.850;4.446;2023-03-23T08:54:03;11.40;99.90
23783;DHT22;12071;50.850;4.446;2023-03-23T08:56:29;11.60;99.90
23783;DHT22;12071;50.850;4.446;2023-03-23T08:58:54;11.50;99.90
23783;DHT22;12071;50.850;4.446;2023-03-23T09:01:20;11.60;99.90
23783;DHT22;12071;50.850;4.446;2023-03-23T09:03:45;11.60;99.90
23783;DHT22;12071;50.850;4.446;2023-03-23T09:06:11;11.70;99.90
23783;DHT22;12071;50.850;4.446;2023-03-23T09:08:38;11.80;99.90
23783;DHT22;12071;50.850;4.446;2023-03-23T09:11:07;11.90;99.90
23783;DHT22;12071;50.850;4.446;2023-03-23T09:13:34;12.10;99.90
23783;DHT22;12071;50.850;4.446;2023-03-23T09:16:00;12.10;99.90
23783;DHT22;12071;50.850;4.446;2023-03-23T09:18:26;11.90;99.90
23783;DHT22;12071;50.850;4.446;2023-03-23T09:20:53;11.90;99.90
23783;DHT22;12071;50.850;4.446;2023-03-23T09:23:19;12.00;99.90
23783;DHT22;12071;50.850;4.446;2023-03-23T09:25:46;12.00;99.90
23783;DHT22;12071;50.850;4.446;2023-03-23T09:28:12;12.10;99.90
23783;DHT22;12071;50.850;4.446;2023-03-23T09:30:40;12.00;99.90
23783;DHT22;12071;50.850;4.446;2023-03-23T09:33:06;11.90;99.90
23783;DHT22;12071;50.850;4.446;2023-03-23T09:35:34;12.00;99.90
23783;DHT22;12071;50.850;4.446;2023-03-23T09:38:01;11.90;99.90
23783;DHT22;12071;50.850;4.446;2023-03-23T09:40:40;11.90;99.90
23783;DHT22;12071;50.850;4.446;2023-03-23T09:43:24;12.00;99.90
23783;DHT22;12071;50.850;4.446;2023-03-23T09:53:44;12.40;99.90
23783;DHT22;12071;50.850;4.446;2023-03-23T09:56:15;12.40;99.90
23783;DHT22;12071;50.850;4.446;2023-03-23T09:58:52;12.50;99.90
23783;DHT22;12071;50.850;4.446;2023-03-23T10:01:28;12.70;99.90
23783;DHT22;12071;50.850;4.446;2023-03-23T10:04:27;12.80;99.90
23783;DHT22;12071;50.850;4.446;2023-03-23T10:06:59;12.90;99.90
23783;DHT22;12071;50.850;4.446;2023-03-23T10:09:26;12.80;99.90
23783;DHT22;12071;50.850;4.446;2023-03-23T10:12:00;12.90;99.90
23783;DHT22;12071;50.850;4.446;2023-03-23T10:17:36;13.20;99.90
23783;DHT22;12071;50.850;4.446;2023-03-23T10:23:08;13.50;99.90
23783;DHT22;12071;50.850;4.446;2023-03-23T10:25:37;13.60;99.90
23783;DHT22;12071;50.850;4.446;2023-03-23T10:28:17;13.60;99.90
23783;DHT22;12071;50.850;4.446;2023-03-23T10:30:48;13.70;99.90
23783;DHT22;12071;50.850;4.446;2023-03-23T10:33:18;13.70;99.90
23783;DHT22;12071;50.850;4.446;2023-03-23T10:36:01;13.70;99.90
23783;DHT22;12071;50.850;4.446;2023-03-23T10:38:36;13.60;99.90
23783;DHT22;12071;50.850;4.446;2023-03-23T10:41:17;13.60;99.90
23783;DHT22;12071;50.850;4.446;2023-03-23T10:43:44;13.70;99.90
23783;DHT22;12071;50.850;4.446;2023-03-23T10:46:36;13.80;99.90
23783;DHT22;12071;50.850;4.446;2023-03-23T10:49:08;14.00;98.30
23783;DHT22;12071;50.850;4.446;2023-03-23T10:51:37;14.00;66.80
23783;DHT22;12071;50.850;4.446;2023-03-23T10:54:04;14.10;66.30
23783;DHT22;12071;50.850;4.446;2023-03-23T10:59:13;14.50;11.90
23783;DHT22;12071;50.850;4.446;2023-03-23T11:01:43;14.80;1.00
23783;DHT22;12071;50.850;4.446;2023-03-23T11:04:14;14.90;1.00
23783;DHT22;12071;50.850;4.446;2023-03-23T11:06:45;15.00;99.90
23783;DHT22;12071;50.850;4.446;2023-03-23T11:09:12;14.90;99.90
23783;DHT22;12071;50.850;4.446;2023-03-23T11:11:40;14.80;99.90
23783;DHT22;12071;50.850;4.446;2023-03-23T11:14:24;14.70;99.90
23783;DHT22;12071;50.850;4.446;2023-03-23T11:16:58;14.90;99.90
23783;DHT22;12071;50.850;4.446;2023-03-23T11:19:28;14.80;99.90
23783;DHT22;12071;50.850;4.446;2023-03-23T11:21:58;14.90;99.90
23783;DHT22;12071;50.850;4.446;2023-03-23T11:24:28;14.80;36.00
23783;DHT22;12071;50.850;4.446;2023-03-23T11:26:56;14.60;99.90
23783;DHT22;12071;50.850;4.446;2023-03-23T11:29:25;14.60;99.90
23783;DHT22;12071;50.850;4.446;2023-03-23T11:32:05;14.90;99.90
23783;DHT22;12071;50.850;4.446;2023-03-23T11:34:42;15.30;1.00
23783;DHT22;12071;50.850;4.446;2023-03-23T11:40:14;15.50;99.90
23783;DHT22;12071;50.850;4.446;2023-03-23T11:42:49;15.70;99.90
23783;DHT22;12071;50.850;4.446;2023-03-23T11:45:34;15.90;1.00
23783;DHT22;12071;50.850;4.446;2023-03-23T11:51:08;16.20;99.90
23783;DHT22;12071;50.850;4.446;2023-03-23T11:56:29;16.40;1.00
23783;DHT22;12071;50.850;4.446;2023-03-23T11:58:57;16.50;1.00
23783;DHT22;12071;50.850;4.446;2023-03-23T12:09:59;15.90;99.90
23783;DHT22;12071;50.850;4.446;2023-03-23T12:15:07;16.10;99.90
23783;DHT22;12071;50.850;4.446;2023-03-23T12:29:10;16.10;96.10
23783;DHT22;12071;50.850;4.446;2023-03-23T12:32:24;16.20;99.90
23783;DHT22;12071;50.850;4.446;2023-03-23T12:37:48;15.90;1.00
23783;DHT22;12071;50.850;4.446;2023-03-23T12:40:39;16.10;58.30
23783;DHT22;12071;50.850;4.446;2023-03-23T12:49:29;16.10;1.00
23783;DHT22;12071;50.850;4.446;2023-03-23T12:52:15;15.90;1.00
23783;DHT22;12071;50.850;4.446;2023-03-23T12:55:23;16.10;1.00
23783;DHT22;12071;50.850;4.446;2023-03-23T12:58:01;16.30;1.00
23783;DHT22;12071;50.850;4.446;2023-03-23T13:01:11;16.40;1.00
23783;DHT22;12071;50.850;4.446;2023-03-23T13:06:48;16.30;1.00
23783;DHT22;12071;50.850;4.446;2023-03-23T13:12:00;17.10;1.00
23783;DHT22;12071;50.850;4.446;2023-03-23T13:17:29;17.70;1.00
23783;DHT22;12071;50.850;4.446;2023-03-23T13:26:07;16.90;99.90
23783;DHT22;12071;50.850;4.446;2023-03-23T13:31:34;17.30;99.90
23783;DHT22;12071;50.850;4.446;2023-03-23T13:39:01;17.60;1.00
23783;DHT22;12071;50.850;4.446;2023-03-23T13:41:27;17.70;1.00
23783;DHT22;12071;50.850;4.446;2023-03-23T13:44:05;17.30;99.90
23783;DHT22;12071;50.850;4.446;2023-03-23T13:46:31;17.20;99.90
23783;DHT22;12071;50.850;4.446;2023-03-23T13:56:58;16.60;99.90
23783;DHT22;12071;50.850;4.446;2023-03-23T14:01:54;16.40;99.90
23783;DHT22;12071;50.850;4.446;2023-03-23T14:04:21;16.40;99.90
23783;DHT22;12071;50.850;4.446;2023-03-23T14:06:49;16.50;1.00
23783;DHT22;12071;50.850;4.446;2023-03-23T14:09:29;16.00;84.70
23783;DHT22;12071;50.850;4.446;2023-03-23T14:12:03;15.60;95.20
23783;DHT22;12071;50.850;4.446;2023-03-23T14:14:40;15.30;99.90
23783;DHT22;12071;50.850;4.446;2023-03-23T14:17:26;15.30;99.90
23783;DHT22;12071;50.850;4.446;2023-03-23T14:19:54;15.40;1.00
23783;DHT22;12071;50.850;4.446;2023-03-23T14:22:32;15.40;1.00
23783;DHT22;12071;50.850;4.446;2023-03-23T14:25:18;16.00;99.90
23783;DHT22;12071;50.850;4.446;2023-03-23T14:27:46;17.00;99.90
23783;DHT22;12071;50.850;4.446;2023-03-23T14:30:21;18.00;99.90
23783;DHT22;12071;50.850;4.446;2023-03-23T14:32:47;18.70;99.90
23783;DHT22;12071;50.850;4.446;2023-03-23T14:35:30;18.20;1.00
23783;DHT22;12071;50.850;4.446;2023-03-23T14:37:56;17.80;1.00
23783;DHT22;12071;50.850;4.446;2023-03-23T14:40:26;17.50;1.00
23783;DHT22;12071;50.850;4.446;2023-03-23T14:42:52;17.20;27.50
23783;DHT22;12071;50.850;4.446;2023-03-23T14:45:20;16.90;99.90
23783;DHT22;12071;50.850;4.446;2023-03-23T14:47:50;16.80;99.90
23783;DHT22;12071;50.850;4.446;2023-03-23T14:50:30;16.70;99.90
23783;DHT22;12071;50.850;4.446;2023-03-23T14:53:24;16.40;99.90
23783;DHT22;12071;50.850;4.446;2023-03-23T14:55:52;16.30;1.00
23783;DHT22;12071;50.850;4.446;2023-03-23T14:58:20;16.30;1.00
23783;DHT22;12071;50.850;4.446;2023-03-23T15:00:54;16.40;1.00
23783;DHT22;12071;50.850;4.446;2023-03-23T15:03:22;16.80;1.00
23783;DHT22;12071;50.850;4.446;2023-03-23T15:05:53;17.50;1.00
23783;DHT22;12071;50.850;4.446;2023-03-23T15:08:24;18.00;99.90
23783;DHT22;12071;50.850;4.446;2023-03-23T15:11:22;18.90;1.00
23783;DHT22;12071;50.850;4.446;2023-03-23T15:13:53;19.10;99.90
23783;DHT22;12071;50.850;4.446;2023-03-23T15:16:25;18.90;99.90
23783;DHT22;12071;50.850;4.446;2023-03-23T15:19:02;18.40;99.90
23783;DHT22;12071;50.850;4.446;2023-03-23T15:21:30;18.20;99.90
23783;DHT22;12071;50.850;4.446;2023-03-23T15:23:58;18.50;99.90
23783;DHT22;12071;50.850;4.446;2023-03-23T15:26:43;18.40;99.90
23783;DHT22;12071;50.850;4.446;2023-03-23T15:31:46;17.60;99.90
23783;DHT22;12071;50.850;4.446;2023-03-23T15:34:16;17.50;99.90
23783;DHT22;12071;50.850;4.446;2023-03-23T15:36:43;17.40;99.90
23783;DHT22;12071;50.850;4.446;2023-03-23T15:39:12;17.50;99.90
23783;DHT22;12071;50.850;4.446;2023-03-23T15:41:47;17.40;99.90
23783;DHT22;12071;50.850;4.446;2023-03-23T15:44:31;17.30;99.90
23783;DHT22;12071;50.850;4.446;2023-03-23T15:47:17;17.20;99.90
23783;DHT22;12071;50.850;4.446;2023-03-23T15:49:46;17.00;1.00
23783;DHT22;12071;50.850;4.446;2023-03-23T15:52:13;16.60;1.00
23783;DHT22;12071;50.850;4.446;2023-03-23T15:54:46;16.40;99.70
23783;DHT22;12071;50.850;4.446;2023-03-23T15:57:12;16.10;99.90
23783;DHT22;12071;50.850;4.446;2023-03-23T15:59:37;16.20;99.90
23783;DHT22;12071;50.850;4.446;2023-03-23T16:02:03;16.50;99.90
23783;DHT22;12071;50.850;4.446;2023-03-23T16:04:29;16.70;99.90
23783;DHT22;12071;50.850;4.446;2023-03-23T16:06:56;16.70;99.90
23783;DHT22;12071;50.850;4.446;2023-03-23T16:09:23;16.70;99.90
23783;DHT22;12071;50.850;4.446;2023-03-23T16:11:49;16.90;99.90
23783;DHT22;12071;50.850;4.446;2023-03-23T16:14:14;16.90;99.90
23783;DHT22;12071;50.850;4.446;2023-03-23T16:16:43;17.00;99.90
23783;DHT22;12071;50.850;4.446;2023-03-23T16:19:14;16.70;99.90
23783;DHT22;12071;50.850;4.446;2023-03-23T16:21:40;16.70;95.20
23783;DHT22;12071;50.850;4.446;2023-03-23T16:24:07;16.70;86.50
23783;DHT22;12071;50.850;4.446;2023-03-23T16:26:33;16.60;97.80
23783;DHT22;12071;50.850;4.446;2023-03-23T16:28:59;16.40;89.50
23783;DHT22;12071;50.850;4.446;2023-03-23T16:31:25;16.60;99.90
23783;DHT22;12071;50.850;4.446;2023-03-23T16:33:50;17.30;27.70
23783;DHT22;12071;50.850;4.446;2023-03-23T16:36:16;18.00;1.00
23783;DHT22;12071;50.850;4.446;2023-03-23T16:38:42;18.60;99.90
23783;DHT22;12071;50.850;4.446;2023-03-23T16:41:08;19.10;99.90
23783;DHT22;12071;50.850;4.446;2023-03-23T16:43:34;19.90;99.90
23783;DHT22;12071;50.850;4.446;2023-03-23T16:46:00;20.20;66.50
23783;DHT22;12071;50.850;4.446;2023-03-23T16:48:25;20.20;1.00
23783;DHT22;12071;50.850;4.446;2023-03-23T16:50:52;19.70;1.00
23783;DHT22;12071;50.850;4.446;2023-03-23T16:53:19;18.90;1.00
23783;DHT22;12071;50.850;4.446;2023-03-23T16:55:45;18.70;1.00
23783;DHT22;12071;50.850;4.446;2023-03-23T16:58:13;18.30;1.00
23783;DHT22;12071;50.850;4.446;2023-03-23T17:00:40;18.00;1.00
23783;DHT22;12071;50.850;4.446;2023-03-23T17:03:06;17.60;1.00
23783;DHT22;12071;50.850;4.446;2023-03-23T17:05:34;17.30;1.00
23783;DHT22;12071;50.850;4.446;2023-03-23T17:08:00;17.00;15.30
23783;DHT22;12071;50.850;4.446;2023-03-23T17:10:27;16.90;70.70
23783;DHT22;12071;50.850;4.446;2023-03-23T17:12:54;16.90;99.90
23783;DHT22;12071;50.850;4.446;2023-03-23T17:15:20;16.70;99.90
23783;DHT22;12071;50.850;4.446;2023-03-23T17:17:45;16.60;99.90
23783;DHT22;12071;50.850;4.446;2023-03-23T17:20:12;16.40;99.90
23783;DHT22;12071;50.850;4.446;2023-03-23T17:22:39;16.20;99.90
23783;DHT22;12071;50.850;4.446;2023-03-23T17:25:06;16.10;99.90
23783;DHT22;12071;50.850;4.446;2023-03-23T17:27:33;16.10;99.90
23783;DHT22;12071;50.850;4.446;2023-03-23T17:29:59;16.10;99.90
23783;DHT22;12071;50.850;4.446;2023-03-23T17:32:25;16.00;99.90
23783;DHT22;12071;50.850;4.446;2023-03-23T17:34:51;16.00;99.90
23783;DHT22;12071;50.850;4.446;2023-03-23T17:37:18;16.10;99.90
23783;DHT22;12071;50.850;4.446;2023-03-23T17:39:44;16.10;99.90